sensor_id;sensor_type;location;lat;lon;timestamp;pressure;altitude;pressure_sealevel;temperature;humidity
71666;BME280;59503;53.486;10.196;2022-09-09T00:00:44;100876.44;;;12.70;100.00
71666;BME280;59503;53.486;10.196;2022-09-09T00:03:17;100878.38;;;12.69;100.00
71666;BME280;59503;53.486;10.196;2022-09-09T00:06:03;100877.25;;;12.74;100.00
71666;BME280;59503;53.486;10.196;2022-09-09T00:11:46;100875.72;;;12.76;100.00
71666;BME280;59503;53.486;10.196;2022-09-09T00:14:27;100872.56;;;12.74;100.00
71666;BME280;59503;53.486;10.196;2022-09-09T00:17:02;100869.50;;;12.79;100.00
71666;BME280;59503;53.486;10.196;2022-09-09T00:24:32;100872.66;;;12.81;100.00
71666;BME280;59503;53.486;10.196;2022-09-09T00:27:07;100868.75;;;12.82;100.00
71666;BME280;59503;53.486;10.196;2022-09-09T00:29:53;100866.81;;;12.83;100.00
71666;BME280;59503;53.486;10.196;2022-09-09T00:32:21;100873.50;;;12.85;100.00
71666;BME280;59503;53.486;10.196;2022-09-09T00:35:18;100874.31;;;12.89;100.00
71666;BME280;59503;53.486;10.196;2022-09-09T00:37:46;100879.00;;;12.92;100.00
71666;BME280;59503;53.486;10.196;2022-09-09T00:40:33;100867.31;;;12.92;100.00
71666;BME280;59503;53.486;10.196;2022-09-09T00:48:11;100865.06;;;13.01;100.00
71666;BME280;59503;53.486;10.196;2022-09-09T00:51:02;100864.31;;;13.00;100.00
71666;BME280;59503;53.486;10.196;2022-09-09T00:56:29;100866.69;;;13.02;100.00
71666;BME280;59503;53.486;10.196;2022-09-09T00:59:22;100859.66;;;13.04;100.00
71666;BME280;59503;53.486;10.196;2022-09-09T01:01:50;100866.31;;;13.03;100.00
71666;BME280;59503;53.486;10.196;2022-09-09T01:04:27;100869.03;;;13.03;100.00
71666;BME280;59503;53.486;10.196;2022-09-09T01:07:06;100847.13;;;13.00;100.00
71666;BME280;59503;53.486;10.196;2022-09-09T01:09:57;100861.25;;;13.05;100.00
71666;BME280;59503;53.486;10.196;2022-09-09T01:12:44;100863.63;;;13.07;100.00
71666;BME280;59503;53.486;10.196;2022-09-09T01:15:17;100862.03;;;13.06;100.00
71666;BME280;59503;53.486;10.196;2022-09-09T01:20:17;100860.44;;;13.01;100.00
71666;BME280;59503;53.486;10.196;2022-09-09T01:28:26;100865.06;;;13.01;100.00
71666;BME280;59503;53.486;10.196;2022-09-09T01:30:53;100859.56;;;12.97;100.00
71666;BME280;59503;53.486;10.196;2022-09-09T01:33:19;100858.00;;;12.96;100.00
71666;BME280;59503;53.486;10.196;2022-09-09T01:38:16;100864.22;;;12.93;100.00
71666;BME280;59503;53.486;10.196;2022-09-09T01:40:43;100857.97;;;12.93;100.00
71666;BME280;59503;53.486;10.196;2022-09-09T01:43:09;100868.09;;;12.92;100.00
71666;BME280;59503;53.486;10.196;2022-09-09T01:45:35;100853.66;;;12.88;100.00
71666;BME280;59503;53.486;10.196;2022-09-09T01:48:00;100856.03;;;12.93;100.00
71666;BME280;59503;53.486;10.196;2022-09-09T01:50:28;100852.88;;;12.91;100.00
71666;BME280;59503;53.486;10.196;2022-09-09T01:52:56;100849.38;;;12.91;100.00
71666;BME280;59503;53.486;10.196;2022-09-09T01:55:38;100854.06;;;12.90;100.00
71666;BME280;59503;53.486;10.196;2022-09-09T01:58:31;100861.06;;;12.91;100.00
71666;BME280;59503;53.486;10.196;2022-09-09T02:01:22;100855.59;;;12.88;100.00
71666;BME280;59503;53.486;10.196;2022-09-09T02:03:53;100846.97;;;12.86;100.00
71666;BME280;59503;53.486;10.196;2022-09-09T02:06:41;100853.97;;;12.83;100.00
71666;BME280;59503;53.486;10.196;2022-09-09T02:09:11;100855.09;;;12.79;100.00
71666;BME280;59503;53.486;10.196;2022-09-09T02:11:38;100860.53;;;12.79;100.00
71666;BME280;59503;53.486;10.196;2022-09-09T02:14:10;100860.91;;;12.77;100.00
71666;BME280;59503;53.486;10.196;2022-09-09T02:16:41;100866.75;;;12.76;100.00
71666;BME280;59503;53.486;10.196;2022-09-09T02:21:33;100870.66;;;12.75;100.00
71666;BME280;59503;53.486;10.196;2022-09-09T02:24:05;100864.41;;;12.74;100.00
71666;BME280;59503;53.486;10.196;2022-09-09T02:26:37;100866.66;;;12.69;100.00
71666;BME280;59503;53.486;10.196;2022-09-09T02:29:09;100863.56;;;12.70;100.00
71666;BME280;59503;53.486;10.196;2022-09-09T02:31:39;100861.16;;;12.65;100.00
71666;BME280;59503;53.486;10.196;2022-09-09T02:34:09;100856.91;;;12.68;100.00
71666;BME280;59503;53.486;10.196;2022-09-09T02:36:36;100859.19;;;12.62;100.00
71666;BME280;59503;53.486;10.196;2022-09-09T02:39:07;100859.59;;;12.64;100.00
71666;BME280;59503;53.486;10.196;2022-09-09T02:41:36;100852.19;;;12.61;100.00
71666;BME280;59503;53.486;10.196;2022-09-09T02:44:08;100840.34;;;12.50;100.00
71666;BME280;59503;53.486;10.196;2022-09-09T02:52:26;100852.09;;;12.54;100.00
71666;BME280;59503;53.486;10.196;2022-09-09T02:55:06;100856.34;;;12.52;100.00
71666;BME280;59503;53.486;10.196;2022-09-09T02:57:34;100863.75;;;12.51;100.00
71666;BME280;59503;53.486;10.196;2022-09-09T03:00:00;100854.75;;;12.50;100.00
71666;BME280;59503;53.486;10.196;2022-09-09T03:02:26;100852.00;;;12.47;100.00
71666;BME280;59503;53.486;10.196;2022-09-09T03:04:52;100861.72;;;12.44;100.00
71666;BME280;59503;53.486;10.196;2022-09-09T03:07:18;100854.63;;;12.40;100.00
71666;BME280;59503;53.486;10.196;2022-09-09T03:09:44;100864.41;;;12.41;100.00
71666;BME280;59503;53.486;10.196;2022-09-09T03:12:10;100864.34;;;12.37;100.00
71666;BME280;59503;53.486;10.196;2022-09-09T03:14:39;100870.19;;;12.36;100.00
71666;BME280;59503;53.486;10.196;2022-09-09T03:17:05;100862.41;;;12.38;100.00
71666;BME280;59503;53.486;10.196;2022-09-09T03:19:31;100871.72;;;12.37;100.00
71666;BME280;59503;53.486;10.196;2022-09-09T03:21:57;100875.22;;;12.34;100.00
71666;BME280;59503;53.486;10.196;2022-09-09T03:24:24;100866.28;;;12.37;100.00
71666;BME280;59503;53.486;10.196;2022-09-09T03:26:50;100855.75;;;12.35;100.00
71666;BME280;59503;53.486;10.196;2022-09-09T03:29:16;100857.28;;;12.33;100.00
71666;BME280;59503;53.486;10.196;2022-09-09T03:31:42;100864.72;;;12.36;100.00
71666;BME280;59503;53.486;10.196;2022-09-09T03:34:08;100861.19;;;12.35;100.00
71666;BME280;59503;53.486;10.196;2022-09-09T03:36:33;100865.84;;;12.35;100.00
71666;BME280;59503;53.486;10.196;2022-09-09T03:38:59;100859.97;;;12.29;100.00
71666;BME280;59503;53.486;10.196;2022-09-09T03:41:26;100867.34;;;12.29;100.00
71666;BME280;59503;53.486;10.196;2022-09-09T03:43:52;100862.66;;;12.26;100.00
71666;BME280;59503;53.486;10.196;2022-09-09T03:46:18;100870.50;;;12.31;100.00
71666;BME280;59503;53.486;10.196;2022-09-09T03:48:44;100870.88;;;12.29;100.00
71666;BME280;59503;53.486;10.196;2022-09-09T03:51:11;100868.09;;;12.26;100.00
71666;BME280;59503;53.486;10.196;2022-09-09T03:53:36;100862.59;;;12.22;100.00
71666;BME280;59503;53.486;10.196;2022-09-09T03:56:04;100864.06;;;12.16;100.00
71666;BME280;59503;53.486;10.196;2022-09-09T03:58:33;100873.44;;;12.19;100.00
71666;BME280;59503;53.486;10.196;2022-09-09T04:01:09;100871.84;;;12.14;100.00
71666;BME280;59503;53.486;10.196;2022-09-09T04:03:35;100860.88;;;12.11;100.00
71666;BME280;59503;53.486;10.196;2022-09-09T04:06:03;100874.50;;;12.11;100.00
71666;BME280;59503;53.486;10.196;2022-09-09T04:08:30;100872.53;;;12.08;100.00
71666;BME280;59503;53.486;10.196;2022-09-09T04:10:59;100879.91;;;12.07;100.00
71666;BME280;59503;53.486;10.196;2022-09-09T04:13:27;100884.16;;;12.05;100.00
71666;BME280;59503;53.486;10.196;2022-09-09T04:15:58;100888.03;;;12.04;100.00
71666;BME280;59503;53.486;10.196;2022-09-09T04:18:24;100882.53;;;12.00;100.00
71666;BME280;59503;53.486;10.196;2022-09-09T04:20:52;100882.91;;;11.99;100.00
71666;BME280;59503;53.486;10.196;2022-09-09T04:23:18;100875.09;;;11.97;100.00
71666;BME280;59503;53.486;10.196;2022-09-09T04:25:46;100882.84;;;11.95;100.00
71666;BME280;59503;53.486;10.196;2022-09-09T04:28:16;100883.09;;;11.87;100.00
71666;BME280;59503;53.486;10.196;2022-09-09T04:30:42;100875.34;;;11.89;100.00
71666;BME280;59503;53.486;10.196;2022-09-09T04:33:09;100897.22;;;11.92;100.00
71666;BME280;59503;53.486;10.196;2022-09-09T04:35:38;100891.81;;;11.96;100.00
71666;BME280;59503;53.486;10.196;2022-09-09T04:38:05;100898.03;;;11.96;100.00
71666;BME280;59503;53.486;10.196;2022-09-09T04:40:33;100901.97;;;11.99;100.00
71666;BME280;59503;53.486;10.196;2022-09-09T04:43:00;100891.88;;;11.99;100.00
71666;BME280;59503;53.486;10.196;2022-09-09T04:45:26;100903.59;;;12.03;100.00
71666;BME280;59503;53.486;10.196;2022-09-09T04:47:53;100896.63;;;12.06;100.00
71666;BME280;59503;53.486;10.196;2022-09-09T04:50:19;100897.44;;;12.10;100.00
71666;BME280;59503;53.486;10.196;2022-09-09T04:52:44;100898.25;;;12.10;100.00
71666;BME280;59503;53.486;10.196;2022-09-09T04:55:11;100894.00;;;12.13;100.00
71666;BME280;59503;53.486;10.196;2022-09-09T04:57:38;100904.16;;;12.16;100.00
71666;BME280;59503;53.486;10.196;2022-09-09T05:00:04;100896.00;;;12.16;100.00
71666;BME280;59503;53.486;10.196;2022-09-09T05:02:30;100906.16;;;12.19;100.00
71666;BME280;59503;53.486;10.196;2022-09-09T05:04:56;100878.38;;;12.10;100.00
71666;BME280;59503;53.486;10.196;2022-09-09T05:07:21;100908.44;;;12.17;100.00
71666;BME280;59503;53.486;10.196;2022-09-09T05:09:47;100904.94;;;12.16;100.00
71666;BME280;59503;53.486;10.196;2022-09-09T05:12:15;100905.69;;;12.13;100.00
71666;BME280;59503;53.486;10.196;2022-09-09T05:14:42;100896.31;;;12.11;100.00
71666;BME280;59503;53.486;10.196;2022-09-09T05:17:08;100904.50;;;12.11;100.00
71666;BME280;59503;53.486;10.196;2022-09-09T05:19:33;100908.78;;;12.12;100.00
71666;BME280;59503;53.486;10.196;2022-09-09T05:21:59;100907.63;;;12.13;100.00
71666;BME280;59503;53.486;10.196;2022-09-09T05:24:26;100913.09;;;12.13;100.00
71666;BME280;59503;53.486;10.196;2022-09-09T05:26:51;100915.06;;;12.16;100.00
71666;BME280;59503;53.486;10.196;2022-09-09T05:29:17;100920.19;;;12.21;100.00
71666;BME280;59503;53.486;10.196;2022-09-09T05:31:45;100922.97;;;12.24;100.00
71666;BME280;59503;53.486;10.196;2022-09-09T05:34:11;100908.56;;;12.24;100.00
71666;BME280;59503;53.486;10.196;2022-09-09T05:36:37;100912.47;;;12.26;100.00
71666;BME280;59503;53.486;10.196;2022-09-09T05:39:02;100913.31;;;12.30;100.00
71666;BME280;59503;53.486;10.196;2022-09-09T05:41:28;100914.88;;;12.31;100.00
71666;BME280;59503;53.486;10.196;2022-09-09T05:43:54;100912.94;;;12.32;100.00
71666;BME280;59503;53.486;10.196;2022-09-09T05:46:21;100923.53;;;12.37;100.00
71666;BME280;59503;53.486;10.196;2022-09-09T05:48:48;100922.72;;;12.36;100.00
71666;BME280;59503;53.486;10.196;2022-09-09T05:51:22;100936.09;;;12.45;100.00
71666;BME280;59503;53.486;10.196;2022-09-09T05:53:49;100928.34;;;12.47;100.00
71666;BME280;59503;53.486;10.196;2022-09-09T05:56:18;100937.84;;;12.60;100.00
71666;BME280;59503;53.486;10.196;2022-09-09T05:58:44;100930.94;;;12.66;100.00
71666;BME280;59503;53.486;10.196;2022-09-09T06:01:33;100936.88;;;12.75;100.00
71666;BME280;59503;53.486;10.196;2022-09-09T06:03:59;100944.72;;;12.80;100.00
71666;BME280;59503;53.486;10.196;2022-09-09T06:06:32;100942.47;;;12.86;100.00
71666;BME280;59503;53.486;10.196;2022-09-09T06:09:02;100952.28;;;12.90;100.00
71666;BME280;59503;53.486;10.196;2022-09-09T06:11:31;100948.06;;;12.96;100.00
71666;BME280;59503;53.486;10.196;2022-09-09T06:13:57;100952.75;;;12.99;100.00
71666;BME280;59503;53.486;10.196;2022-09-09T06:16:24;100955.97;;;13.05;100.00
71666;BME280;59503;53.486;10.196;2022-09-09T06:18:50;100952.53;;;13.11;100.00
71666;BME280;59503;53.486;10.196;2022-09-09T06:21:20;100960.41;;;13.16;100.00
71666;BME280;59503;53.486;10.196;2022-09-09T06:23:46;100954.53;;;13.14;100.00
71666;BME280;59503;53.486;10.196;2022-09-09T06:26:18;100958.84;;;13.19;100.00
71666;BME280;59503;53.486;10.196;2022-09-09T06:28:48;100954.66;;;13.25;100.00
71666;BME280;59503;53.486;10.196;2022-09-09T06:31:16;100957.41;;;13.28;100.00
71666;BME280;59503;53.486;10.196;2022-09-09T06:33:43;100962.91;;;13.32;100.00
71666;BME280;59503;53.486;10.196;2022-09-09T06:36:14;100960.59;;;13.37;100.00
71666;BME280;59503;53.486;10.196;2022-09-09T06:38:43;100966.50;;;13.39;100.00
71666;BME280;59503;53.486;10.196;2022-09-09T06:41:10;100962.22;;;13.42;100.00
71666;BME280;59503;53.486;10.196;2022-09-09T06:43:36;100970.50;;;13.49;100.00
71666;BME280;59503;53.486;10.196;2022-09-09T06:46:22;100969.38;;;13.53;100.00
71666;BME280;59503;53.486;10.196;2022-09-09T06:48:48;100959.25;;;13.57;100.00
71666;BME280;59503;53.486;10.196;2022-09-09T06:51:20;100960.06;;;13.61;100.00
71666;BME280;59503;53.486;10.196;2022-09-09T06:53:56;100961.63;;;13.62;100.00
71666;BME280;59503;53.486;10.196;2022-09-09T06:56:27;100953.91;;;13.71;100.00
71666;BME280;59503;53.486;10.196;2022-09-09T06:58:55;100958.69;;;13.82;100.00
71666;BME280;59503;53.486;10.196;2022-09-09T07:01:25;100954.50;;;13.95;100.00
71666;BME280;59503;53.486;10.196;2022-09-09T07:03:53;100945.97;;;14.03;100.00
71666;BME280;59503;53.486;10.196;2022-09-09T07:06:24;100962.25;;;14.40;100.00
71666;BME280;59503;53.486;10.196;2022-09-09T07:08:51;100958.06;;;14.53;100.00
71666;BME280;59503;53.486;10.196;2022-09-09T07:11:18;100948.28;;;14.59;100.00
71666;BME280;59503;53.486;10.196;2022-09-09T07:13:45;100964.84;;;14.87;100.00
71666;BME280;59503;53.486;10.196;2022-09-09T07:16:13;100961.00;;;15.06;100.00
71666;BME280;59503;53.486;10.196;2022-09-09T07:18:39;100958.66;;;15.04;100.00
71666;BME280;59503;53.486;10.196;2022-09-09T07:21:05;100952.41;;;15.07;100.00
71666;BME280;59503;53.486;10.196;2022-09-09T07:23:32;100951.59;;;14.96;100.00
71666;BME280;59503;53.486;10.196;2022-09-09T07:25:58;100960.22;;;15.05;100.00
71666;BME280;59503;53.486;10.196;2022-09-09T07:28:24;100962.19;;;15.08;100.00
71666;BME280;59503;53.486;10.196;2022-09-09T07:30:57;100962.63;;;15.31;100.00
71666;BME280;59503;53.486;10.196;2022-09-09T07:33:24;100960.38;;;15.61;100.00
71666;BME280;59503;53.486;10.196;2022-09-09T07:35:50;100962.72;;;15.94;100.00
71666;BME280;59503;53.486;10.196;2022-09-09T07:38:16;100974.06;;;16.25;100.00
71666;BME280;59503;53.486;10.196;2022-09-09T07:40:41;100977.97;;;16.52;100.00
71666;BME280;59503;53.486;10.196;2022-09-09T07:43:07;100981.00;;;16.82;100.00
71666;BME280;59503;53.486;10.196;2022-09-09T07:45:34;100985.59;;;17.13;100.00
71666;BME280;59503;53.486;10.196;2022-09-09T07:48:00;100982.72;;;17.34;100.00
71666;BME280;59503;53.486;10.196;2022-09-09T07:50:26;100985.69;;;17.64;100.00
71666;BME280;59503;53.486;10.196;2022-09-09T07:52:52;100978.66;;;17.63;100.00
71666;BME280;59503;53.486;10.196;2022-09-09T07:55:19;100991.19;;;17.68;100.00
71666;BME280;59503;53.486;10.196;2022-09-09T07:57:44;100988.28;;;17.27;99.50
71666;BME280;59503;53.486;10.196;2022-09-09T08:00:11;101000.16;;;17.03;100.00
71666;BME280;59503;53.486;10.196;2022-09-09T08:02:36;100998.25;;;16.93;100.00
71666;BME280;59503;53.486;10.196;2022-09-09T08:05:02;100995.53;;;16.79;100.00
71666;BME280;59503;53.486;10.196;2022-09-09T08:07:27;100997.13;;;16.69;100.00
71666;BME280;59503;53.486;10.196;2022-09-09T08:09:53;100983.84;;;16.61;100.00
71666;BME280;59503;53.486;10.196;2022-09-09T08:12:21;100997.94;;;16.59;100.00
71666;BME280;59503;53.486;10.196;2022-09-09T08:14:46;100993.66;;;16.44;100.00
71666;BME280;59503;53.486;10.196;2022-09-09T08:17:13;101001.50;;;16.49;100.00
71666;BME280;59503;53.486;10.196;2022-09-09T08:19:39;101001.91;;;16.48;100.00
71666;BME280;59503;53.486;10.196;2022-09-09T08:22:05;101006.56;;;16.65;100.00
71666;BME280;59503;53.486;10.196;2022-09-09T08:24:31;101001.41;;;16.81;100.00
71666;BME280;59503;53.486;10.196;2022-09-09T08:26:57;101009.22;;;16.89;100.00
71666;BME280;59503;53.486;10.196;2022-09-09T08:29:22;100997.94;;;16.66;100.00
71666;BME280;59503;53.486;10.196;2022-09-09T08:31:56;101014.41;;;16.63;100.00
71666;BME280;59503;53.486;10.196;2022-09-09T08:34:23;101016.78;;;16.57;100.00
71666;BME280;59503;53.486;10.196;2022-09-09T08:36:50;101012.47;;;16.60;100.00
71666;BME280;59503;53.486;10.196;2022-09-09T08:39:18;101023.81;;;16.62;100.00
71666;BME280;59503;53.486;10.196;2022-09-09T08:54:56;101015.53;;;16.83;99.81
71666;BME280;59503;53.486;10.196;2022-09-09T08:57:26;101007.31;;;16.83;99.48
71666;BME280;59503;53.486;10.196;2022-09-09T08:59:54;101001.03;;;16.72;97.54
71666;BME280;59503;53.486;10.196;2022-09-09T09:05:08;101020.91;;;17.14;100.00
71666;BME280;59503;53.486;10.196;2022-09-09T09:08:05;101019.63;;;17.36;99.67
71666;BME280;59503;53.486;10.196;2022-09-09T09:10:48;101031.72;;;17.53;100.00
71666;BME280;59503;53.486;10.196;2022-09-09T09:16:27;101028.38;;;17.86;92.04
71666;BME280;59503;53.486;10.196;2022-09-09T09:18:58;101036.91;;;18.02;94.37
71666;BME280;59503;53.486;10.196;2022-09-09T09:21:44;101034.97;;;17.99;91.30
71666;BME280;59503;53.486;10.196;2022-09-09T09:24:23;101032.00;;;18.24;95.89
71666;BME280;59503;53.486;10.196;2022-09-09T09:26:52;101034.38;;;18.22;91.87
71666;BME280;59503;53.486;10.196;2022-09-09T09:29:19;101029.53;;;18.36;92.25
71666;BME280;59503;53.486;10.196;2022-09-09T09:31:58;101027.09;;;18.49;92.61
71666;BME280;59503;53.486;10.196;2022-09-09T09:34:26;101028.28;;;18.48;91.02
71666;BME280;59503;53.486;10.196;2022-09-09T09:36:59;101029.88;;;18.83;91.78
71666;BME280;59503;53.486;10.196;2022-09-09T09:39:33;101025.78;;;18.98;88.87
71666;BME280;59503;53.486;10.196;2022-09-09T09:42:10;101026.00;;;18.77;82.72
71666;BME280;59503;53.486;10.196;2022-09-09T09:44:39;101031.63;;;19.03;88.33
71666;BME280;59503;53.486;10.196;2022-09-09T09:49:33;101015.31;;;19.16;85.44
71666;BME280;59503;53.486;10.196;2022-09-09T09:52:02;101013.38;;;19.13;85.77
71666;BME280;59503;53.486;10.196;2022-09-09T09:54:30;101012.69;;;19.05;87.33
71666;BME280;59503;53.486;10.196;2022-09-09T09:56:56;101026.84;;;19.07;86.11
71666;BME280;59503;53.486;10.196;2022-09-09T09:59:34;101027.06;;;18.90;86.18
71666;BME280;59503;53.486;10.196;2022-09-09T10:02:21;101023.97;;;18.84;88.87
71666;BME280;59503;53.486;10.196;2022-09-09T10:05:00;101024.31;;;18.90;91.21
71666;BME280;59503;53.486;10.196;2022-09-09T10:07:26;101019.72;;;19.10;89.19
71666;BME280;59503;53.486;10.196;2022-09-09T10:09:56;101025.78;;;19.28;85.73
71666;BME280;59503;53.486;10.196;2022-09-09T10:12:31;101032.84;;;19.89;88.18
71666;BME280;59503;53.486;10.196;2022-09-09T10:15:09;101025.34;;;20.13;80.59
71666;BME280;59503;53.486;10.196;2022-09-09T10:17:54;101030.94;;;19.56;78.09
71666;BME280;59503;53.486;10.196;2022-09-09T10:23:15;101025.00;;;19.31;84.84
71666;BME280;59503;53.486;10.196;2022-09-09T10:26:07;101023.59;;;19.16;85.35
71666;BME280;59503;53.486;10.196;2022-09-09T10:31:22;101007.00;;;19.19;85.92
71666;BME280;59503;53.486;10.196;2022-09-09T10:36:31;101024.38;;;18.83;84.80
71666;BME280;59503;53.486;10.196;2022-09-09T10:39:00;101013.66;;;18.54;85.42
71666;BME280;59503;53.486;10.196;2022-09-09T10:46:51;101015.69;;;18.47;89.08
71666;BME280;59503;53.486;10.196;2022-09-09T10:49:32;101012.81;;;18.61;87.46
71666;BME280;59503;53.486;10.196;2022-09-09T10:57:34;101002.75;;;18.44;87.42
71666;BME280;59503;53.486;10.196;2022-09-09T11:00:10;101000.03;;;18.40;86.46
71666;BME280;59503;53.486;10.196;2022-09-09T11:02:40;101007.91;;;18.35;87.26
71666;BME280;59503;53.486;10.196;2022-09-09T11:05:17;100986.66;;;18.42;87.53
71666;BME280;59503;53.486;10.196;2022-09-09T11:07:53;100992.84;;;18.50;85.48
71666;BME280;59503;53.486;10.196;2022-09-09T11:10:44;100996.75;;;18.56;87.59
71666;BME280;59503;53.486;10.196;2022-09-09T11:13:26;101004.84;;;18.70;85.30
71666;BME280;59503;53.486;10.196;2022-09-09T11:18:46;100987.81;;;18.79;83.13
71666;BME280;59503;53.486;10.196;2022-09-09T11:21:20;100986.41;;;18.97;82.16
71666;BME280;59503;53.486;10.196;2022-09-09T11:23:57;101002.06;;;19.37;81.07
71666;BME280;59503;53.486;10.196;2022-09-09T11:26:32;101006.53;;;19.81;83.89
71666;BME280;59503;53.486;10.196;2022-09-09T11:29:23;101001.81;;;20.05;80.65
71666;BME280;59503;53.486;10.196;2022-09-09T11:37:51;101005.00;;;20.03;78.70
71666;BME280;59503;53.486;10.196;2022-09-09T11:40:24;101009.34;;;20.04;76.99
71666;BME280;59503;53.486;10.196;2022-09-09T11:45:28;101012.19;;;19.74;79.08
71666;BME280;59503;53.486;10.196;2022-09-09T11:47:59;101007.00;;;19.49;79.81
71666;BME280;59503;53.486;10.196;2022-09-09T11:52:50;101009.16;;;19.38;83.11
71666;BME280;59503;53.486;10.196;2022-09-09T11:55:30;101017.00;;;19.40;84.51
71666;BME280;59503;53.486;10.196;2022-09-09T12:03:04;101014.88;;;18.87;89.57
71666;BME280;59503;53.486;10.196;2022-09-09T12:05:44;101007.28;;;18.65;91.66
71666;BME280;59503;53.486;10.196;2022-09-09T12:08:16;101013.34;;;18.45;92.79
71666;BME280;59503;53.486;10.196;2022-09-09T12:10:56;101011.47;;;18.35;92.00
71666;BME280;59503;53.486;10.196;2022-09-09T12:13:24;101024.47;;;18.31;92.20
71666;BME280;59503;53.486;10.196;2022-09-09T12:15:56;101004.78;;;18.33;94.16
71666;BME280;59503;53.486;10.196;2022-09-09T12:18:36;101002.84;;;18.30;92.07
71666;BME280;59503;53.486;10.196;2022-09-09T12:21:27;101005.19;;;18.31;91.46
71666;BME280;59503;53.486;10.196;2022-09-09T12:24:02;101006.75;;;18.36;92.02
71666;BME280;59503;53.486;10.196;2022-09-09T12:26:37;101017.34;;;18.37;89.41
71666;BME280;59503;53.486;10.196;2022-09-09T12:29:25;101020.09;;;18.37;90.62
71666;BME280;59503;53.486;10.196;2022-09-09T12:32:06;101018.09;;;18.38;90.93
71666;BME280;59503;53.486;10.196;2022-09-09T12:34:41;101022.03;;;18.44;92.50
71666;BME280;59503;53.486;10.196;2022-09-09T12:39:59;101022.25;;;18.60;93.55
71666;BME280;59503;53.486;10.196;2022-09-09T12:42:26;101023.34;;;18.70;94.61
71666;BME280;59503;53.486;10.196;2022-09-09T12:44:56;101021.69;;;18.76;87.15
71666;BME280;59503;53.486;10.196;2022-09-09T12:47:37;101009.41;;;18.84;86.25
71666;BME280;59503;53.486;10.196;2022-09-09T12:50:04;101012.88;;;18.91;84.63
71666;BME280;59503;53.486;10.196;2022-09-09T12:52:35;101009.94;;;19.05;85.99
71666;BME280;59503;53.486;10.196;2022-09-09T12:55:05;101013.34;;;19.16;85.96
71666;BME280;59503;53.486;10.196;2022-09-09T12:57:36;101019.38;;;19.38;87.04
71666;BME280;59503;53.486;10.196;2022-09-09T13:00:11;101000.16;;;19.61;86.50
71666;BME280;59503;53.486;10.196;2022-09-09T13:02:47;100995.94;;;20.03;86.53
71666;BME280;59503;53.486;10.196;2022-09-09T13:05:17;100999.94;;;20.25;81.19
71666;BME280;59503;53.486;10.196;2022-09-09T13:07:42;101012.50;;;20.29;77.56
71666;BME280;59503;53.486;10.196;2022-09-09T13:10:13;101019.38;;;20.41;77.04
71666;BME280;59503;53.486;10.196;2022-09-09T13:12:40;101010.78;;;20.35;77.51
71666;BME280;59503;53.486;10.196;2022-09-09T13:15:16;101015.84;;;20.17;81.16
71666;BME280;59503;53.486;10.196;2022-09-09T13:17:49;101012.38;;;20.10;80.18
71666;BME280;59503;53.486;10.196;2022-09-09T13:20:19;101009.19;;;19.88;79.88
71666;BME280;59503;53.486;10.196;2022-09-09T13:22:48;101006.91;;;19.83;81.49
71666;BME280;59503;53.486;10.196;2022-09-09T13:25:27;101000.94;;;19.61;79.48
71666;BME280;59503;53.486;10.196;2022-09-09T13:28:04;101013.63;;;19.55;84.57
71666;BME280;59503;53.486;10.196;2022-09-09T13:30:32;101028.03;;;19.40;86.05
71666;BME280;59503;53.486;10.196;2022-09-09T13:36:12;101054.56;;;18.93;90.62
71666;BME280;59503;53.486;10.196;2022-09-09T13:41:35;101055.09;;;18.40;95.09
71666;BME280;59503;53.486;10.196;2022-09-09T13:44:02;101063.50;;;18.19;97.86
71666;BME280;59503;53.486;10.196;2022-09-09T13:46:37;101060.13;;;17.98;99.63
71666;BME280;59503;53.486;10.196;2022-09-09T13:51:37;101076.84;;;17.63;100.00
71666;BME280;59503;53.486;10.196;2022-09-09T13:54:09;101075.34;;;17.48;100.00
71666;BME280;59503;53.486;10.196;2022-09-09T13:56:35;101069.91;;;17.30;100.00
71666;BME280;59503;53.486;10.196;2022-09-09T13:59:03;101060.16;;;17.15;100.00
71666;BME280;59503;53.486;10.196;2022-09-09T14:01:29;101065.69;;;17.04;100.00
71666;BME280;59503;53.486;10.196;2022-09-09T14:03:55;101059.06;;;16.88;100.00
71666;BME280;59503;53.486;10.196;2022-09-09T14:06:21;101053.59;;;16.77;100.00
71666;BME280;59503;53.486;10.196;2022-09-09T14:08:50;101057.16;;;16.64;100.00
71666;BME280;59503;53.486;10.196;2022-09-09T14:11:16;101048.16;;;16.53;100.00
71666;BME280;59503;53.486;10.196;2022-09-09T14:13:41;101048.91;;;16.43;100.00
71666;BME280;59503;53.486;10.196;2022-09-09T14:16:07;101037.16;;;16.32;100.00
71666;BME280;59503;53.486;10.196;2022-09-09T14:18:32;101030.09;;;16.20;100.00
71666;BME280;59503;53.486;10.196;2022-09-09T14:20:59;101025.41;;;16.10;100.00
71666;BME280;59503;53.486;10.196;2022-09-09T14:23:25;101023.06;;;16.01;100.00
71666;BME280;59503;53.486;10.196;2022-09-09T14:25:51;101016.00;;;15.93;100.00
71666;BME280;59503;53.486;10.196;2022-09-09T14:28:17;101014.44;;;15.89;100.00
71666;BME280;59503;53.486;10.196;2022-09-09T14:30:43;101010.88;;;15.78;100.00
71666;BME280;59503;53.486;10.196;2022-09-09T14:33:14;101020.69;;;15.75;100.00
71666;BME280;59503;53.486;10.196;2022-09-09T14:35:41;101031.63;;;15.68;100.00